Piper Inness — WDC3984 — position and weather

sailwx.info

Track history (hours):
 
Tides and Currents Weather Stations Pressure Air Temp Water Temp Dewpoint Dewpoint Depression Visibility Wind Speed Wind Dir Waves Ship Positions

Piper Inness

Owner: Foss Maritime Co, Seattle, WA. More information available from US FCC via Universal Licensing System and Coast Guard Vessel Documentation Center.

Last reported at 2017-Feb-22 06:33 UTC. Time now 2017-Feb-24 06:04 UTC.
Position N 33°44' W 118°12'.

; draft 2 m.

Type: Other ship. MMSI: 367017440.

Date/timePositionNaut miles runAvg speedWind from/ knotsBaromVisibWave heightAir tempDewpointWater temp
2017-Feb-22 06:33N 33°44' W 118°12'1715.4
2017-Feb-22 05:28N 33°28' W 118°04'1517.2
2017-Feb-22 04:33N 33°14' W 117°57'1110.8
2017-Feb-22 03:34N 33°04' W 117°53'1 1.4
2017-Feb-22 02:34N 33°03' W 117°52'0 0.5
2017-Feb-22 01:33N 33°02' W 117°53'2 1.9
2017-Feb-22 00:33N 33°02' W 117°50'1 0.5
2017-Feb-21 23:33N 33°02' W 117°50'1 0.6
2017-Feb-21 22:33N 33°02' W 117°49'2 1.8
2017-Feb-21 21:33N 33°01' W 117°48'1 0.8
2017-Feb-21 20:33N 33°01' W 117°47'0 0.1
2017-Feb-21 19:33N 33°01' W 117°47'1 0.7
2017-Feb-21 18:33N 33°01' W 117°47'1 0.9
2017-Feb-21 17:33N 33°01' W 117°47'1 0.5
2017-Feb-21 16:33N 33°01' W 117°47'1 0.6
2017-Feb-21 15:33N 33°00' W 117°47'1 0.6
2017-Feb-21 14:33N 32°60' W 117°47'0 0.3
2017-Feb-21 13:33N 33°00' W 117°47'1 1.0
2017-Feb-21 12:33N 32°59' W 117°46'0 0.5
2017-Feb-21 11:33N 32°59' W 117°46'0 0.4
2017-Feb-21 10:33N 32°58' W 117°46'1 1.1
2017-Feb-21 09:34N 32°58' W 117°45'1 1.2
2017-Feb-21 08:33N 32°57' W 117°44'1 0.6
2017-Feb-21 07:34N 32°57' W 117°43'1 0.6
2017-Feb-21 06:34N 32°57' W 117°43'1 0.9
2017-Feb-21 05:33N 32°56' W 117°42'0 0.3
2017-Feb-21 04:33N 32°56' W 117°42'3 2.7
2017-Feb-21 03:34N 32°54' W 117°39'2 1.9
2017-Feb-21 02:34N 32°56' W 117°40'1 1.1
2017-Feb-21 01:33N 32°56' W 117°41'1 1.0
2017-Feb-21 00:33N 32°56' W 117°43'2 2.2
2017-Feb-20 23:33N 32°58' W 117°44'1 0.6
2017-Feb-20 22:33N 32°58' W 117°45'1 1.4
2017-Feb-20 21:33N 32°58' W 117°47'2 2.2
2017-Feb-20 20:33N 32°60' W 117°49'1 0.9
2017-Feb-20 19:33N 33°00' W 117°49'1 0.8
2017-Feb-20 18:34N 32°60' W 117°49'3 2.9
2017-Feb-20 17:33N 33°01' W 117°52'4 4.5
2017-Feb-20 16:33N 33°04' W 117°55'4 4.5
2017-Feb-20 15:33N 33°08' W 117°58'2 2.5
2017-Feb-20 14:34N 33°11' W 117°58'1414.4
2017-Feb-20 13:33N 33°25' W 118°03'  
2017-Feb-16 16:33N 33°46' W 118°13'9 9.0
2017-Feb-16 15:34N 33°38' W 118°08'1717.5
2017-Feb-16 14:34N 33°22' W 117°60'1716.8
2017-Feb-16 13:34N 33°07' W 117°51'2 1.6
2017-Feb-16 12:33N 33°05' W 117°52'4 3.6
2017-Feb-16 11:33N 33°02' W 117°49'1 1.5
2017-Feb-16 10:33N 33°01' W 117°49'2 2.0
2017-Feb-16 09:33N 32°59' W 117°48'3 2.8
2017-Feb-16 08:33N 32°57' W 117°46'3 2.8
2017-Feb-16 07:33N 32°54' W 117°44'1 1.2
2017-Feb-16 06:33N 32°54' W 117°43'2 2.2
2017-Feb-16 05:33N 32°53' W 117°40'1 1.5
2017-Feb-16 04:33N 32°54' W 117°42'1 0.5
2017-Feb-16 03:33N 32°54' W 117°42'0 0.2
2017-Feb-16 02:33N 32°54' W 117°42'1 1.3
2017-Feb-16 01:33N 32°55' W 117°43'1 0.6
2017-Feb-16 00:33N 32°56' W 117°43'1 1.2
2017-Feb-15 23:33N 32°56' W 117°45'1 1.3
2017-Feb-15 22:33N 32°56' W 117°46'1 1.1
2017-Feb-15 21:33N 32°56' W 117°48'3 3.4
2017-Feb-15 20:33N 32°59' W 117°50'4 4.4
2017-Feb-15 19:33N 33°03' W 117°53'3 3.3
2017-Feb-15 18:33N 33°06' W 117°55'0 0.1
2017-Feb-15 17:33N 33°06' W 117°55'1 1.4
2017-Feb-15 16:33N 33°07' W 117°54'1 1.0
2017-Feb-15 15:34N 33°07' W 117°55'4 3.7
2017-Feb-15 14:33N 33°06' W 117°51'1 1.4
2017-Feb-15 13:34N 33°05' W 117°50'1 0.8
2017-Feb-15 12:34N 33°04' W 117°49'2 2.1
2017-Feb-15 11:33N 33°03' W 117°47'0 0.4
2017-Feb-15 10:33N 33°03' W 117°47'0 0.4
2017-Feb-15 09:33N 33°02' W 117°47'4 4.2
2017-Feb-15 08:33N 32°60' W 117°44'3 2.9
2017-Feb-15 07:33N 32°59' W 117°47'2 1.6
2017-Feb-15 06:33N 32°59' W 117°46'2 2.1
2017-Feb-15 05:34N 32°59' W 117°48'0 0.1
2017-Feb-15 04:33N 32°59' W 117°48'4 3.6
2017-Feb-15 03:34N 33°01' W 117°51'5 4.9
2017-Feb-15 02:33N 33°06' W 117°54'2 2.2
2017-Feb-15 01:33N 33°08' W 117°54'3 2.6
2017-Feb-15 00:34N 33°10' W 117°56'4 3.7
2017-Feb-14 23:33N 33°13' W 117°53'5 5.3
2017-Feb-14 22:33N 33°09' W 117°57'7 6.8
2017-Feb-14 21:34N 33°16' W 117°57'1716.9
2017-Feb-14 20:33N 33°32' W 118°03'1414.3
2017-Feb-14 19:33N 33°44' W 118°12'2 2.4
2017-Feb-14 18:33N 33°46' W 118°13'0 0.0
2017-Feb-13 20:29N 33°46' W 118°13'0 0.0
2017-Feb-13 19:33N 33°46' W 118°13'0 0.0
2017-Feb-13 18:33N 33°46' W 118°13'0 0.0
2017-Feb-13 17:30N 33°46' W 118°13'  
Track history (hours):
 
Tides and Currents Weather Stations Pressure Air Temp Water Temp Dewpoint Dewpoint Depression Visibility Wind Speed Wind Dir Waves Ship Positions

Piper Inness

Owner: Foss Maritime Co, Seattle, WA. More information available from US FCC via Universal Licensing System and Coast Guard Vessel Documentation Center.

Last reported at 2017-Feb-22 06:33 UTC. Time now 2017-Feb-24 06:04 UTC.
Position N 33°44' W 118°12'.

; draft 2 m.

Type: Other ship. MMSI: 367017440.

Date/timePositionNaut miles runAvg speedWind from/ knotsBaromVisibWave heightAir tempDewpointWater temp
2017-Feb-22 06:33N 33°44' W 118°12'1715.4
2017-Feb-22 05:28N 33°28' W 118°04'1517.2
2017-Feb-22 04:33N 33°14' W 117°57'1110.8
2017-Feb-22 03:34N 33°04' W 117°53'1 1.4
2017-Feb-22 02:34N 33°03' W 117°52'0 0.5
2017-Feb-22 01:33N 33°02' W 117°53'2 1.9
2017-Feb-22 00:33N 33°02' W 117°50'1 0.5
2017-Feb-21 23:33N 33°02' W 117°50'1 0.6
2017-Feb-21 22:33N 33°02' W 117°49'2 1.8
2017-Feb-21 21:33N 33°01' W 117°48'1 0.8
2017-Feb-21 20:33N 33°01' W 117°47'0 0.1
2017-Feb-21 19:33N 33°01' W 117°47'1 0.7
2017-Feb-21 18:33N 33°01' W 117°47'1 0.9
2017-Feb-21 17:33N 33°01' W 117°47'1 0.5
2017-Feb-21 16:33N 33°01' W 117°47'1 0.6
2017-Feb-21 15:33N 33°00' W 117°47'1 0.6
2017-Feb-21 14:33N 32°60' W 117°47'0 0.3
2017-Feb-21 13:33N 33°00' W 117°47'1 1.0
2017-Feb-21 12:33N 32°59' W 117°46'0 0.5
2017-Feb-21 11:33N 32°59' W 117°46'0 0.4
2017-Feb-21 10:33N 32°58' W 117°46'1 1.1
2017-Feb-21 09:34N 32°58' W 117°45'1 1.2
2017-Feb-21 08:33N 32°57' W 117°44'1 0.6
2017-Feb-21 07:34N 32°57' W 117°43'1 0.6
2017-Feb-21 06:34N 32°57' W 117°43'1 0.9
2017-Feb-21 05:33N 32°56' W 117°42'0 0.3
2017-Feb-21 04:33N 32°56' W 117°42'3 2.7
2017-Feb-21 03:34N 32°54' W 117°39'2 1.9
2017-Feb-21 02:34N 32°56' W 117°40'1 1.1
2017-Feb-21 01:33N 32°56' W 117°41'1 1.0
2017-Feb-21 00:33N 32°56' W 117°43'2 2.2
2017-Feb-20 23:33N 32°58' W 117°44'1 0.6
2017-Feb-20 22:33N 32°58' W 117°45'1 1.4
2017-Feb-20 21:33N 32°58' W 117°47'2 2.2
2017-Feb-20 20:33N 32°60' W 117°49'1 0.9
2017-Feb-20 19:33N 33°00' W 117°49'1 0.8
2017-Feb-20 18:34N 32°60' W 117°49'3 2.9
2017-Feb-20 17:33N 33°01' W 117°52'4 4.5
2017-Feb-20 16:33N 33°04' W 117°55'4 4.5
2017-Feb-20 15:33N 33°08' W 117°58'2 2.5
2017-Feb-20 14:34N 33°11' W 117°58'1414.4
2017-Feb-20 13:33N 33°25' W 118°03'  
2017-Feb-16 16:33N 33°46' W 118°13'9 9.0
2017-Feb-16 15:34N 33°38' W 118°08'1717.5
2017-Feb-16 14:34N 33°22' W 117°60'1716.8
2017-Feb-16 13:34N 33°07' W 117°51'2 1.6
2017-Feb-16 12:33N 33°05' W 117°52'4 3.6
2017-Feb-16 11:33N 33°02' W 117°49'1 1.5
2017-Feb-16 10:33N 33°01' W 117°49'2 2.0
2017-Feb-16 09:33N 32°59' W 117°48'3 2.8
2017-Feb-16 08:33N 32°57' W 117°46'3 2.8
2017-Feb-16 07:33N 32°54' W 117°44'1 1.2
2017-Feb-16 06:33N 32°54' W 117°43'2 2.2
2017-Feb-16 05:33N 32°53' W 117°40'1 1.5
2017-Feb-16 04:33N 32°54' W 117°42'1 0.5
2017-Feb-16 03:33N 32°54' W 117°42'0 0.2
2017-Feb-16 02:33N 32°54' W 117°42'1 1.3
2017-Feb-16 01:33N 32°55' W 117°43'1 0.6
2017-Feb-16 00:33N 32°56' W 117°43'1 1.2
2017-Feb-15 23:33N 32°56' W 117°45'1 1.3
2017-Feb-15 22:33N 32°56' W 117°46'1 1.1
2017-Feb-15 21:33N 32°56' W 117°48'3 3.4
2017-Feb-15 20:33N 32°59' W 117°50'4 4.4
2017-Feb-15 19:33N 33°03' W 117°53'3 3.3
2017-Feb-15 18:33N 33°06' W 117°55'0 0.1
2017-Feb-15 17:33N 33°06' W 117°55'1 1.4
2017-Feb-15 16:33N 33°07' W 117°54'1 1.0
2017-Feb-15 15:34N 33°07' W 117°55'4 3.7
2017-Feb-15 14:33N 33°06' W 117°51'1 1.4
2017-Feb-15 13:34N 33°05' W 117°50'1 0.8
2017-Feb-15 12:34N 33°04' W 117°49'2 2.1
2017-Feb-15 11:33N 33°03' W 117°47'0 0.4
2017-Feb-15 10:33N 33°03' W 117°47'0 0.4
2017-Feb-15 09:33N 33°02' W 117°47'4 4.2
2017-Feb-15 08:33N 32°60' W 117°44'3 2.9
2017-Feb-15 07:33N 32°59' W 117°47'2 1.6
2017-Feb-15 06:33N 32°59' W 117°46'2 2.1
2017-Feb-15 05:34N 32°59' W 117°48'0 0.1
2017-Feb-15 04:33N 32°59' W 117°48'4 3.6
2017-Feb-15 03:34N 33°01' W 117°51'5 4.9
2017-Feb-15 02:33N 33°06' W 117°54'2 2.2
2017-Feb-15 01:33N 33°08' W 117°54'3 2.6
2017-Feb-15 00:34N 33°10' W 117°56'4 3.7
2017-Feb-14 23:33N 33°13' W 117°53'5 5.3
2017-Feb-14 22:33N 33°09' W 117°57'7 6.8
2017-Feb-14 21:34N 33°16' W 117°57'1716.9
2017-Feb-14 20:33N 33°32' W 118°03'1414.3
2017-Feb-14 19:33N 33°44' W 118°12'2 2.4
2017-Feb-14 18:33N 33°46' W 118°13'0 0.0
2017-Feb-13 20:29N 33°46' W 118°13'0 0.0
2017-Feb-13 19:33N 33°46' W 118°13'0 0.0
2017-Feb-13 18:33N 33°46' W 118°13'0 0.0
2017-Feb-13 17:30N 33°46' W 118°13'  

Dump ship's entire track history